Jacksonville, North Carolina
Current Conditions -  °F | °C
As of 11:56 AM on Thursday 27 Nov 2014 (Local Time) from KNCA Reporting Station
Clear Clear  
Wind Chill: 53°   Ceiling: Unl
Heat Index: 53°   Visibility: 10mi
Dew Point: 39°   Wind: 14mph
Humidity: 59%   Direction: 290°WNW
Pressure: 29.98"   Gusts: 18mph
Location:  34.75°N, 77.42°W
Report Text: KNCA 271656Z AUTO 29012G16KT 10SM CLR 12/04 A2998 RMK AO2 SLP154 T01170039
Loading
Personal Weather Stations






























Interactive Weather Map New forecast layout! Learn more

10-Day Weather Forecast

Advertisements
Track Severe Weather on mobile